sensor_id;sensor_type;location;lat;lon;timestamp;pressure;altitude;pressure_sealevel;temperature;humidity
46574;BME280;32299;53.366;-1.544;2022-08-01T00:01:07;99232.05;;;18.67;38.04
46574;BME280;32299;53.366;-1.544;2022-08-01T00:03:34;99229.12;;;18.28;38.55
46574;BME280;32299;53.366;-1.544;2022-08-01T00:06:01;99232.86;;;18.19;38.32
46574;BME280;32299;53.366;-1.544;2022-08-01T00:08:28;99232.02;;;18.47;38.07
46574;BME280;32299;53.366;-1.544;2022-08-01T00:10:55;99232.87;;;18.09;38.12
46574;BME280;32299;53.366;-1.544;2022-08-01T00:13:22;99229.92;;;18.20;38.33
46574;BME280;32299;53.366;-1.544;2022-08-01T00:15:49;99235.42;;;18.44;38.07
46574;BME280;32299;53.366;-1.544;2022-08-01T00:18:16;99238.52;;;18.39;38.23
46574;BME280;32299;53.366;-1.544;2022-08-01T00:20:43;99236.60;;;18.52;38.28
46574;BME280;32299;53.366;-1.544;2022-08-01T00:23:10;99235.39;;;17.63;39.32
46574;BME280;32299;53.366;-1.544;2022-08-01T00:25:37;99235.34;;;17.74;38.99
46574;BME280;32299;53.366;-1.544;2022-08-01T00:28:04;99238.02;;;17.98;39.10
46574;BME280;32299;53.366;-1.544;2022-08-01T00:30:31;99242.63;;;16.59;40.51
46574;BME280;32299;53.366;-1.544;2022-08-01T00:32:58;99233.24;;;17.89;38.93
46574;BME280;32299;53.366;-1.544;2022-08-01T00:35:25;99233.02;;;18.19;39.04
46574;BME280;32299;53.366;-1.544;2022-08-01T00:37:53;99235.16;;;17.35;40.14
46574;BME280;32299;53.366;-1.544;2022-08-01T00:40:20;99237.40;;;17.74;39.17
46574;BME280;32299;53.366;-1.544;2022-08-01T00:42:47;99241.61;;;17.65;40.06
46574;BME280;32299;53.366;-1.544;2022-08-01T00:45:15;99241.60;;;18.04;38.93
46574;BME280;32299;53.366;-1.544;2022-08-01T00:47:42;99236.58;;;17.42;38.99
46574;BME280;32299;53.366;-1.544;2022-08-01T00:50:10;99237.09;;;17.52;39.71
46574;BME280;32299;53.366;-1.544;2022-08-01T00:52:39;99234.68;;;17.63;39.40
46574;BME280;32299;53.366;-1.544;2022-08-01T00:55:08;99230.93;;;17.69;39.50
46574;BME280;32299;53.366;-1.544;2022-08-01T00:57:36;99233.53;;;17.61;39.36
46574;BME280;32299;53.366;-1.544;2022-08-01T01:00:05;99231.81;;;18.11;38.80
46574;BME280;32299;53.366;-1.544;2022-08-01T01:02:33;99231.23;;;17.73;39.33
46574;BME280;32299;53.366;-1.544;2022-08-01T01:05:00;99232.18;;;17.85;39.78
46574;BME280;32299;53.366;-1.544;2022-08-01T01:07:32;99234.73;;;18.01;39.60
46574;BME280;32299;53.366;-1.544;2022-08-01T01:10:06;99236.58;;;17.98;39.76
46574;BME280;32299;53.366;-1.544;2022-08-01T01:12:41;99233.70;;;17.85;39.45
46574;BME280;32299;53.366;-1.544;2022-08-01T01:15:14;99234.79;;;17.83;39.48
46574;BME280;32299;53.366;-1.544;2022-08-01T01:17:46;99236.09;;;18.08;39.30
46574;BME280;32299;53.366;-1.544;2022-08-01T01:20:16;99235.14;;;18.04;39.58
46574;BME280;32299;53.366;-1.544;2022-08-01T01:22:57;99236.99;;;17.70;39.67
46574;BME280;32299;53.366;-1.544;2022-08-01T01:25:41;99235.82;;;18.01;39.40
46574;BME280;32299;53.366;-1.544;2022-08-01T01:28:20;99234.66;;;17.83;39.36
46574;BME280;32299;53.366;-1.544;2022-08-01T01:30:52;99237.23;;;18.02;39.38
46574;BME280;32299;53.366;-1.544;2022-08-01T01:33:25;99240.51;;;18.01;38.94
46574;BME280;32299;53.366;-1.544;2022-08-01T01:35:57;99236.53;;;17.90;39.39
46574;BME280;32299;53.366;-1.544;2022-08-01T01:38:29;99232.18;;;17.85;39.11
46574;BME280;32299;53.366;-1.544;2022-08-01T01:41:00;99233.21;;;17.53;39.98
46574;BME280;32299;53.366;-1.544;2022-08-01T01:43:29;99232.36;;;17.52;39.61
46574;BME280;32299;53.366;-1.544;2022-08-01T01:45:57;99232.56;;;17.66;39.15
46574;BME280;32299;53.366;-1.544;2022-08-01T01:48:25;99234.49;;;17.75;39.80
46574;BME280;32299;53.366;-1.544;2022-08-01T01:50:54;99238.75;;;17.94;38.73
46574;BME280;32299;53.366;-1.544;2022-08-01T01:53:22;99239.14;;;17.08;40.05
46574;BME280;32299;53.366;-1.544;2022-08-01T01:55:52;99237.84;;;17.24;40.36
46574;BME280;32299;53.366;-1.544;2022-08-01T01:58:20;99230.34;;;16.64;41.29
46574;BME280;32299;53.366;-1.544;2022-08-01T02:00:52;99228.97;;;17.15;40.76
46574;BME280;32299;53.366;-1.544;2022-08-01T02:03:21;99227.77;;;17.25;40.45
46574;BME280;32299;53.366;-1.544;2022-08-01T02:05:49;99225.17;;;17.12;40.88
46574;BME280;32299;53.366;-1.544;2022-08-01T02:08:18;99224.24;;;16.86;41.38
46574;BME280;32299;53.366;-1.544;2022-08-01T02:10:46;99225.07;;;17.52;40.81
46574;BME280;32299;53.366;-1.544;2022-08-01T02:13:14;99220.41;;;17.49;40.28
46574;BME280;32299;53.366;-1.544;2022-08-01T02:15:44;99222.09;;;17.64;40.20
46574;BME280;32299;53.366;-1.544;2022-08-01T02:18:11;99223.12;;;17.89;40.18
46574;BME280;32299;53.366;-1.544;2022-08-01T02:20:39;99223.91;;;17.56;39.95
46574;BME280;32299;53.366;-1.544;2022-08-01T02:23:10;99221.78;;;17.28;40.05
46574;BME280;32299;53.366;-1.544;2022-08-01T02:25:42;99222.02;;;17.35;40.16
46574;BME280;32299;53.366;-1.544;2022-08-01T02:28:15;99222.56;;;17.38;39.96
46574;BME280;32299;53.366;-1.544;2022-08-01T02:30:47;99220.86;;;17.07;40.56
46574;BME280;32299;53.366;-1.544;2022-08-01T02:33:18;99215.98;;;17.06;40.41
46574;BME280;32299;53.366;-1.544;2022-08-01T02:35:48;99216.95;;;16.97;41.15
46574;BME280;32299;53.366;-1.544;2022-08-01T02:38:18;99212.98;;;17.21;40.79
46574;BME280;32299;53.366;-1.544;2022-08-01T02:40:47;99215.40;;;17.00;41.12
46574;BME280;32299;53.366;-1.544;2022-08-01T02:43:20;99209.43;;;17.18;41.02
46574;BME280;32299;53.366;-1.544;2022-08-01T02:45:51;99208.37;;;16.10;42.45
46574;BME280;32299;53.366;-1.544;2022-08-01T02:48:21;99203.89;;;17.30;40.93
46574;BME280;32299;53.366;-1.544;2022-08-01T02:50:52;99203.41;;;16.94;41.28
46574;BME280;32299;53.366;-1.544;2022-08-01T02:53:22;99207.33;;;16.89;41.03
46574;BME280;32299;53.366;-1.544;2022-08-01T02:55:52;99207.57;;;16.87;41.94
46574;BME280;32299;53.366;-1.544;2022-08-01T02:58:20;99207.16;;;16.68;42.21
46574;BME280;32299;53.366;-1.544;2022-08-01T03:00:48;99208.90;;;16.79;41.58
46574;BME280;32299;53.366;-1.544;2022-08-01T03:03:16;99217.30;;;16.85;41.51
46574;BME280;32299;53.366;-1.544;2022-08-01T03:05:44;99220.99;;;16.53;42.18
46574;BME280;32299;53.366;-1.544;2022-08-01T03:08:14;99217.90;;;16.70;42.09
46574;BME280;32299;53.366;-1.544;2022-08-01T03:10:45;99220.19;;;16.71;41.82
46574;BME280;32299;53.366;-1.544;2022-08-01T03:13:14;99220.98;;;16.50;42.20
46574;BME280;32299;53.366;-1.544;2022-08-01T03:15:44;99218.27;;;15.89;43.08
46574;BME280;32299;53.366;-1.544;2022-08-01T03:18:12;99213.14;;;16.41;42.25
46574;BME280;32299;53.366;-1.544;2022-08-01T03:20:41;99217.66;;;16.36;42.98
46574;BME280;32299;53.366;-1.544;2022-08-01T03:23:11;99216.85;;;15.98;43.12
46574;BME280;32299;53.366;-1.544;2022-08-01T03:25:40;99208.81;;;16.67;41.58
46574;BME280;32299;53.366;-1.544;2022-08-01T03:28:12;99215.79;;;16.12;42.55
46574;BME280;32299;53.366;-1.544;2022-08-01T03:30:42;99218.76;;;15.79;43.48
46574;BME280;32299;53.366;-1.544;2022-08-01T03:33:10;99212.50;;;15.62;43.70
46574;BME280;32299;53.366;-1.544;2022-08-01T03:35:41;99208.60;;;16.27;42.65
46574;BME280;32299;53.366;-1.544;2022-08-01T03:38:10;99207.21;;;16.36;42.57
46574;BME280;32299;53.366;-1.544;2022-08-01T03:40:41;99207.97;;;16.37;42.38
46574;BME280;32299;53.366;-1.544;2022-08-01T03:43:15;99209.02;;;16.13;43.33
46574;BME280;32299;53.366;-1.544;2022-08-01T03:45:51;99209.31;;;16.28;42.84
46574;BME280;32299;53.366;-1.544;2022-08-01T03:48:21;99207.96;;;16.29;42.55
46574;BME280;32299;53.366;-1.544;2022-08-01T03:50:51;99203.65;;;16.66;41.79
46574;BME280;32299;53.366;-1.544;2022-08-01T03:53:22;99204.01;;;16.62;41.98
46574;BME280;32299;53.366;-1.544;2022-08-01T03:55:50;99201.36;;;16.53;41.75
46574;BME280;32299;53.366;-1.544;2022-08-01T03:58:20;99197.91;;;16.69;41.68
46574;BME280;32299;53.366;-1.544;2022-08-01T04:00:48;99197.79;;;16.66;41.96
46574;BME280;32299;53.366;-1.544;2022-08-01T04:03:16;99199.51;;;16.73;41.83
46574;BME280;32299;53.366;-1.544;2022-08-01T04:05:44;99204.01;;;16.75;41.82
46574;BME280;32299;53.366;-1.544;2022-08-01T04:08:11;99207.94;;;16.52;41.77
46574;BME280;32299;53.366;-1.544;2022-08-01T04:10:51;99208.04;;;16.33;42.24
46574;BME280;32299;53.366;-1.544;2022-08-01T04:13:18;99201.24;;;16.51;41.92
46574;BME280;32299;53.366;-1.544;2022-08-01T04:15:45;99200.21;;;16.60;41.73
46574;BME280;32299;53.366;-1.544;2022-08-01T04:18:13;99196.12;;;16.15;42.40
46574;BME280;32299;53.366;-1.544;2022-08-01T04:20:40;99192.95;;;16.43;41.76
46574;BME280;32299;53.366;-1.544;2022-08-01T04:23:08;99192.51;;;16.58;41.86
46574;BME280;32299;53.366;-1.544;2022-08-01T04:25:37;99195.27;;;16.15;42.40
46574;BME280;32299;53.366;-1.544;2022-08-01T04:28:05;99191.60;;;16.23;42.07
46574;BME280;32299;53.366;-1.544;2022-08-01T04:30:34;99196.11;;;15.51;44.09
46574;BME280;32299;53.366;-1.544;2022-08-01T04:33:04;99198.10;;;15.93;42.32
46574;BME280;32299;53.366;-1.544;2022-08-01T04:35:34;99195.97;;;16.11;42.42
46574;BME280;32299;53.366;-1.544;2022-08-01T04:38:04;99194.83;;;16.02;42.47
46574;BME280;32299;53.366;-1.544;2022-08-01T04:40:32;99196.64;;;15.99;42.31
46574;BME280;32299;53.366;-1.544;2022-08-01T04:43:01;99201.77;;;15.86;43.19
46574;BME280;32299;53.366;-1.544;2022-08-01T04:45:29;99203.23;;;16.00;42.54
46574;BME280;32299;53.366;-1.544;2022-08-01T04:47:57;99203.04;;;16.01;42.71
46574;BME280;32299;53.366;-1.544;2022-08-01T04:50:25;99206.52;;;15.90;42.71
46574;BME280;32299;53.366;-1.544;2022-08-01T04:52:53;99207.25;;;15.92;42.81
46574;BME280;32299;53.366;-1.544;2022-08-01T04:55:19;99204.39;;;16.26;41.96
46574;BME280;32299;53.366;-1.544;2022-08-01T04:57:47;99207.44;;;16.19;42.32
46574;BME280;32299;53.366;-1.544;2022-08-01T05:00:15;99209.72;;;16.03;42.93
46574;BME280;32299;53.366;-1.544;2022-08-01T05:02:42;99211.58;;;15.90;42.57
46574;BME280;32299;53.366;-1.544;2022-08-01T05:05:10;99211.02;;;15.80;43.57
46574;BME280;32299;53.366;-1.544;2022-08-01T05:07:38;99209.01;;;15.86;42.66
46574;BME280;32299;53.366;-1.544;2022-08-01T05:10:05;99205.22;;;15.90;43.03
46574;BME280;32299;53.366;-1.544;2022-08-01T05:12:33;99205.59;;;16.16;42.69
46574;BME280;32299;53.366;-1.544;2022-08-01T05:15:00;99208.25;;;16.03;42.88
46574;BME280;32299;53.366;-1.544;2022-08-01T05:17:27;99204.75;;;16.07;42.82
46574;BME280;32299;53.366;-1.544;2022-08-01T05:19:54;99208.32;;;16.66;42.17
46574;BME280;32299;53.366;-1.544;2022-08-01T05:22:21;99213.77;;;16.53;43.18
46574;BME280;32299;53.366;-1.544;2022-08-01T05:24:49;99208.61;;;16.18;43.01
46574;BME280;32299;53.366;-1.544;2022-08-01T05:27:16;99208.96;;;16.24;42.93
46574;BME280;32299;53.366;-1.544;2022-08-01T05:29:43;99206.17;;;16.34;42.82
46574;BME280;32299;53.366;-1.544;2022-08-01T05:32:10;99209.69;;;15.75;43.34
46574;BME280;32299;53.366;-1.544;2022-08-01T05:34:37;99206.24;;;15.69;43.53
46574;BME280;32299;53.366;-1.544;2022-08-01T05:37:03;99206.54;;;15.73;43.87
46574;BME280;32299;53.366;-1.544;2022-08-01T05:39:31;99207.10;;;15.81;44.99
46574;BME280;32299;53.366;-1.544;2022-08-01T05:41:58;99206.64;;;15.05;47.24
46574;BME280;32299;53.366;-1.544;2022-08-01T05:44:25;99210.43;;;14.67;46.55
46574;BME280;32299;53.366;-1.544;2022-08-01T05:46:53;99213.07;;;15.58;45.19
46574;BME280;32299;53.366;-1.544;2022-08-01T05:49:20;99215.08;;;15.44;45.19
46574;BME280;32299;53.366;-1.544;2022-08-01T05:51:47;99216.04;;;15.70;45.39
46574;BME280;32299;53.366;-1.544;2022-08-01T05:54:13;99221.24;;;15.59;45.78
46574;BME280;32299;53.366;-1.544;2022-08-01T05:56:41;99223.14;;;15.67;45.44
46574;BME280;32299;53.366;-1.544;2022-08-01T05:59:08;99223.12;;;15.37;46.29
46574;BME280;32299;53.366;-1.544;2022-08-01T06:01:35;99221.28;;;15.84;46.45
46574;BME280;32299;53.366;-1.544;2022-08-01T06:04:03;99227.63;;;15.58;46.22
46574;BME280;32299;53.366;-1.544;2022-08-01T06:06:30;99229.59;;;15.54;47.11
46574;BME280;32299;53.366;-1.544;2022-08-01T06:08:58;99236.81;;;16.27;46.06
46574;BME280;32299;53.366;-1.544;2022-08-01T06:11:25;99241.83;;;16.03;46.10
46574;BME280;32299;53.366;-1.544;2022-08-01T06:13:52;99244.21;;;15.67;46.95
46574;BME280;32299;53.366;-1.544;2022-08-01T06:16:19;99237.62;;;16.15;46.14
46574;BME280;32299;53.366;-1.544;2022-08-01T06:18:47;99234.57;;;16.02;46.79
46574;BME280;32299;53.366;-1.544;2022-08-01T06:21:14;99234.44;;;15.93;45.72
46574;BME280;32299;53.366;-1.544;2022-08-01T06:23:41;99233.35;;;15.98;45.87
46574;BME280;32299;53.366;-1.544;2022-08-01T06:26:09;99238.89;;;15.80;47.12
46574;BME280;32299;53.366;-1.544;2022-08-01T06:28:36;99244.71;;;14.83;48.57
46574;BME280;32299;53.366;-1.544;2022-08-01T06:31:04;99247.64;;;15.15;48.72
46574;BME280;32299;53.366;-1.544;2022-08-01T06:33:31;99250.92;;;14.83;48.73
46574;BME280;32299;53.366;-1.544;2022-08-01T06:35:58;99251.00;;;15.10;48.40
46574;BME280;32299;53.366;-1.544;2022-08-01T06:38:25;99253.39;;;14.77;49.00
46574;BME280;32299;53.366;-1.544;2022-08-01T06:40:52;99250.98;;;15.95;46.64
46574;BME280;32299;53.366;-1.544;2022-08-01T06:43:19;99250.78;;;16.21;46.20
46574;BME280;32299;53.366;-1.544;2022-08-01T06:45:46;99251.33;;;16.05;46.63
46574;BME280;32299;53.366;-1.544;2022-08-01T06:48:13;99251.90;;;15.18;47.63
46574;BME280;32299;53.366;-1.544;2022-08-01T06:50:41;99249.27;;;15.67;47.58
46574;BME280;32299;53.366;-1.544;2022-08-01T06:53:08;99247.74;;;15.51;47.16
46574;BME280;32299;53.366;-1.544;2022-08-01T06:55:34;99247.29;;;15.67;47.40
46574;BME280;32299;53.366;-1.544;2022-08-01T06:58:01;99250.58;;;15.26;47.52
46574;BME280;32299;53.366;-1.544;2022-08-01T07:00:29;99248.52;;;15.39;46.63
46574;BME280;32299;53.366;-1.544;2022-08-01T07:02:57;99246.40;;;15.16;48.62
46574;BME280;32299;53.366;-1.544;2022-08-01T07:05:25;99253.35;;;15.70;46.48
46574;BME280;32299;53.366;-1.544;2022-08-01T07:07:53;99250.82;;;16.34;45.52
46574;BME280;32299;53.366;-1.544;2022-08-01T07:10:20;99251.70;;;16.18;44.42
46574;BME280;32299;53.366;-1.544;2022-08-01T07:12:47;99248.62;;;16.56;43.99
46574;BME280;32299;53.366;-1.544;2022-08-01T07:15:14;99246.56;;;16.89;44.09
46574;BME280;32299;53.366;-1.544;2022-08-01T07:17:42;99239.96;;;16.98;43.01
46574;BME280;32299;53.366;-1.544;2022-08-01T07:20:12;99241.91;;;16.64;44.84
46574;BME280;32299;53.366;-1.544;2022-08-01T07:22:40;99243.62;;;16.97;43.58
46574;BME280;32299;53.366;-1.544;2022-08-01T07:25:08;99242.20;;;17.15;42.88
46574;BME280;32299;53.366;-1.544;2022-08-01T07:27:36;99246.24;;;15.81;44.06
46574;BME280;32299;53.366;-1.544;2022-08-01T07:30:05;99241.56;;;16.65;41.45
46574;BME280;32299;53.366;-1.544;2022-08-01T07:32:33;99241.46;;;17.77;40.28
46574;BME280;32299;53.366;-1.544;2022-08-01T07:35:01;99246.97;;;17.51;39.94
46574;BME280;32299;53.366;-1.544;2022-08-01T07:37:29;99254.88;;;16.15;42.59
46574;BME280;32299;53.366;-1.544;2022-08-01T07:39:56;99248.80;;;16.52;41.88
46574;BME280;32299;53.366;-1.544;2022-08-01T07:42:24;99247.85;;;17.45;40.00
46574;BME280;32299;53.366;-1.544;2022-08-01T07:44:51;99245.59;;;17.56;40.07
46574;BME280;32299;53.366;-1.544;2022-08-01T07:47:23;99245.85;;;17.70;39.48
46574;BME280;32299;53.366;-1.544;2022-08-01T07:49:51;99248.23;;;17.52;38.74
46574;BME280;32299;53.366;-1.544;2022-08-01T07:52:18;99240.10;;;17.84;39.41
46574;BME280;32299;53.366;-1.544;2022-08-01T07:54:45;99239.41;;;17.59;39.70
46574;BME280;32299;53.366;-1.544;2022-08-01T07:57:12;99234.22;;;17.92;38.40
46574;BME280;32299;53.366;-1.544;2022-08-01T07:59:39;99233.13;;;17.75;38.59
46574;BME280;32299;53.366;-1.544;2022-08-01T08:02:06;99234.72;;;16.74;39.65
46574;BME280;32299;53.366;-1.544;2022-08-01T08:04:33;99231.32;;;17.62;40.18
46574;BME280;32299;53.366;-1.544;2022-08-01T08:07:00;99233.81;;;17.43;40.01
46574;BME280;32299;53.366;-1.544;2022-08-01T08:09:28;99235.89;;;17.06;40.24
46574;BME280;32299;53.366;-1.544;2022-08-01T08:11:55;99235.64;;;18.38;38.73
46574;BME280;32299;53.366;-1.544;2022-08-01T08:14:22;99232.97;;;18.25;38.62
46574;BME280;32299;53.366;-1.544;2022-08-01T08:16:50;99233.37;;;17.94;38.59
46574;BME280;32299;53.366;-1.544;2022-08-01T08:19:18;99235.28;;;17.48;40.07
46574;BME280;32299;53.366;-1.544;2022-08-01T08:21:45;99231.47;;;18.83;38.06
46574;BME280;32299;53.366;-1.544;2022-08-01T08:24:12;99231.34;;;18.84;37.29
46574;BME280;32299;53.366;-1.544;2022-08-01T08:26:39;99224.88;;;19.20;36.28
46574;BME280;32299;53.366;-1.544;2022-08-01T08:29:07;99221.10;;;19.59;36.29
46574;BME280;32299;53.366;-1.544;2022-08-01T08:31:34;99219.99;;;19.33;35.76
46574;BME280;32299;53.366;-1.544;2022-08-01T08:34:01;99222.54;;;19.31;35.84
46574;BME280;32299;53.366;-1.544;2022-08-01T08:36:28;99223.77;;;19.74;36.26
46574;BME280;32299;53.366;-1.544;2022-08-01T08:38:55;99221.84;;;19.47;35.13
46574;BME280;32299;53.366;-1.544;2022-08-01T08:41:22;99223.06;;;20.29;36.02
46574;BME280;32299;53.366;-1.544;2022-08-01T08:43:50;99225.53;;;19.54;35.65
46574;BME280;32299;53.366;-1.544;2022-08-01T08:46:19;99220.63;;;19.74;36.03
46574;BME280;32299;53.366;-1.544;2022-08-01T08:48:47;99219.62;;;19.12;36.16
46574;BME280;32299;53.366;-1.544;2022-08-01T08:51:18;99230.73;;;17.53;39.22
46574;BME280;32299;53.366;-1.544;2022-08-01T08:53:47;99224.48;;;19.26;35.87
46574;BME280;32299;53.366;-1.544;2022-08-01T08:56:15;99221.03;;;20.13;35.59
46574;BME280;32299;53.366;-1.544;2022-08-01T08:58:44;99223.59;;;20.14;35.21
46574;BME280;32299;53.366;-1.544;2022-08-01T09:01:12;99226.03;;;20.03;35.27
46574;BME280;32299;53.366;-1.544;2022-08-01T09:03:40;99221.90;;;20.43;34.52
46574;BME280;32299;53.366;-1.544;2022-08-01T09:06:07;99221.47;;;20.17;34.22
46574;BME280;32299;53.366;-1.544;2022-08-01T09:08:35;99222.44;;;19.55;36.19
46574;BME280;32299;53.366;-1.544;2022-08-01T09:11:03;99224.49;;;19.05;35.54
46574;BME280;32299;53.366;-1.544;2022-08-01T09:13:30;99224.76;;;19.23;37.30
46574;BME280;32299;53.366;-1.544;2022-08-01T09:15:57;99217.93;;;19.39;35.82
46574;BME280;32299;53.366;-1.544;2022-08-01T09:18:27;99221.26;;;19.06;36.81
46574;BME280;32299;53.366;-1.544;2022-08-01T09:21:14;99218.09;;;16.97;38.77
46574;BME280;32299;53.366;-1.544;2022-08-01T09:23:45;99219.42;;;18.11;37.53
46574;BME280;32299;53.366;-1.544;2022-08-01T09:26:14;99216.18;;;18.88;36.87
46574;BME280;32299;53.366;-1.544;2022-08-01T09:28:43;99210.39;;;20.06;35.30
46574;BME280;32299;53.366;-1.544;2022-08-01T09:31:13;99216.63;;;19.37;36.20
46574;BME280;32299;53.366;-1.544;2022-08-01T09:33:50;99223.84;;;19.18;36.95
46574;BME280;32299;53.366;-1.544;2022-08-01T09:36:18;99224.93;;;19.79;36.25
46574;BME280;32299;53.366;-1.544;2022-08-01T09:38:46;99217.69;;;20.48;34.78
46574;BME280;32299;53.366;-1.544;2022-08-01T09:41:13;99216.15;;;19.54;35.05
46574;BME280;32299;53.366;-1.544;2022-08-01T09:43:48;99218.43;;;19.10;36.20
46574;BME280;32299;53.366;-1.544;2022-08-01T09:46:15;99212.59;;;18.53;38.14
46574;BME280;32299;53.366;-1.544;2022-08-01T09:48:55;99213.26;;;19.61;36.29
46574;BME280;32299;53.366;-1.544;2022-08-01T09:51:33;99214.20;;;19.66;35.89
46574;BME280;32299;53.366;-1.544;2022-08-01T09:54:00;99209.29;;;19.29;36.39
46574;BME280;32299;53.366;-1.544;2022-08-01T09:56:36;99215.21;;;19.69;33.50
46574;BME280;32299;53.366;-1.544;2022-08-01T09:59:05;99209.72;;;20.55;33.99
46574;BME280;32299;53.366;-1.544;2022-08-01T10:01:43;99201.97;;;21.39;33.88
46574;BME280;32299;53.366;-1.544;2022-08-01T10:04:13;99201.39;;;21.64;32.43
46574;BME280;32299;53.366;-1.544;2022-08-01T10:06:42;99209.87;;;20.27;34.21
46574;BME280;32299;53.366;-1.544;2022-08-01T10:09:11;99220.19;;;19.80;34.67
46574;BME280;32299;53.366;-1.544;2022-08-01T10:11:41;99218.35;;;20.75;32.85
46574;BME280;32299;53.366;-1.544;2022-08-01T10:14:09;99218.92;;;21.04;34.39
46574;BME280;32299;53.366;-1.544;2022-08-01T10:16:37;99218.59;;;21.61;31.80
46574;BME280;32299;53.366;-1.544;2022-08-01T10:19:07;99227.93;;;21.36;34.52
46574;BME280;32299;53.366;-1.544;2022-08-01T10:21:37;99227.96;;;21.16;33.41
46574;BME280;32299;53.366;-1.544;2022-08-01T10:24:06;99225.34;;;21.56;32.20
46574;BME280;32299;53.366;-1.544;2022-08-01T10:26:46;99222.87;;;20.51;33.86
46574;BME280;32299;53.366;-1.544;2022-08-01T10:29:20;99216.35;;;21.33;35.24
46574;BME280;32299;53.366;-1.544;2022-08-01T10:31:48;99217.21;;;21.78;34.29
46574;BME280;32299;53.366;-1.544;2022-08-01T10:34:16;99221.57;;;22.65;33.17
46574;BME280;32299;53.366;-1.544;2022-08-01T10:36:44;99223.81;;;20.74;34.32
46574;BME280;32299;53.366;-1.544;2022-08-01T10:39:12;99222.59;;;21.94;33.06
46574;BME280;32299;53.366;-1.544;2022-08-01T10:41:40;99222.21;;;20.87;34.04
46574;BME280;32299;53.366;-1.544;2022-08-01T10:44:08;99219.48;;;22.40;32.55
46574;BME280;32299;53.366;-1.544;2022-08-01T10:46:38;99214.86;;;22.12;32.91
46574;BME280;32299;53.366;-1.544;2022-08-01T10:49:10;99210.94;;;22.09;31.14
46574;BME280;32299;53.366;-1.544;2022-08-01T10:51:38;99209.88;;;22.23;32.11
46574;BME280;32299;53.366;-1.544;2022-08-01T10:54:06;99205.27;;;22.99;30.61
46574;BME280;32299;53.366;-1.544;2022-08-01T10:56:39;99205.43;;;21.98;31.22
46574;BME280;32299;53.366;-1.544;2022-08-01T10:59:06;99209.91;;;21.73;31.20
46574;BME280;32299;53.366;-1.544;2022-08-01T11:01:34;99204.99;;;22.11;32.93
46574;BME280;32299;53.366;-1.544;2022-08-01T11:04:04;99205.35;;;22.72;31.66
46574;BME280;32299;53.366;-1.544;2022-08-01T11:06:44;99206.97;;;22.54;31.42
46574;BME280;32299;53.366;-1.544;2022-08-01T11:09:27;99203.28;;;22.46;32.56
46574;BME280;32299;53.366;-1.544;2022-08-01T11:11:59;99197.41;;;23.16;32.17
46574;BME280;32299;53.366;-1.544;2022-08-01T11:14:27;99192.85;;;21.48;33.05
46574;BME280;32299;53.366;-1.544;2022-08-01T11:16:55;99190.89;;;22.27;31.65
46574;BME280;32299;53.366;-1.544;2022-08-01T11:19:23;99191.74;;;22.31;31.85
46574;BME280;32299;53.366;-1.544;2022-08-01T11:22:06;99187.39;;;21.86;32.79
46574;BME280;32299;53.366;-1.544;2022-08-01T11:25:06;99189.02;;;22.68;32.25
46574;BME280;32299;53.366;-1.544;2022-08-01T11:27:32;99182.99;;;23.23;31.64
46574;BME280;32299;53.366;-1.544;2022-08-01T11:30:24;99180.48;;;21.55;32.50
46574;BME280;32299;53.366;-1.544;2022-08-01T11:32:54;99176.77;;;21.70;31.99
46574;BME280;32299;53.366;-1.544;2022-08-01T11:35:29;99175.62;;;22.30;33.57
46574;BME280;32299;53.366;-1.544;2022-08-01T11:37:56;99163.00;;;23.20;31.17
46574;BME280;32299;53.366;-1.544;2022-08-01T11:41:10;99161.19;;;21.94;30.74
46574;BME280;32299;53.366;-1.544;2022-08-01T11:43:54;99156.83;;;22.99;30.14
46574;BME280;32299;53.366;-1.544;2022-08-01T11:46:46;99154.91;;;23.05;33.24
46574;BME280;32299;53.366;-1.544;2022-08-01T11:49:32;99155.77;;;22.17;31.79
46574;BME280;32299;53.366;-1.544;2022-08-01T11:52:03;99147.90;;;24.42;30.81
46574;BME280;32299;53.366;-1.544;2022-08-01T11:54:32;99144.18;;;23.35;30.12
46574;BME280;32299;53.366;-1.544;2022-08-01T11:57:02;99140.70;;;24.18;30.73
46574;BME280;32299;53.366;-1.544;2022-08-01T11:59:37;99144.08;;;23.96;31.23
46574;BME280;32299;53.366;-1.544;2022-08-01T12:02:05;99146.27;;;24.38;29.95
46574;BME280;32299;53.366;-1.544;2022-08-01T12:04:46;99144.83;;;25.41;29.49
46574;BME280;32299;53.366;-1.544;2022-08-01T12:07:14;99154.52;;;23.73;29.50
46574;BME280;32299;53.366;-1.544;2022-08-01T12:09:41;99154.74;;;23.56;29.93
46574;BME280;32299;53.366;-1.544;2022-08-01T12:12:08;99151.68;;;23.81;29.03
46574;BME280;32299;53.366;-1.544;2022-08-01T12:14:36;99145.47;;;25.16;29.81
46574;BME280;32299;53.366;-1.544;2022-08-01T12:17:04;99141.60;;;25.51;31.08
46574;BME280;32299;53.366;-1.544;2022-08-01T12:19:31;99143.19;;;25.43;30.73
46574;BME280;32299;53.366;-1.544;2022-08-01T12:22:15;99141.76;;;25.24;28.31
46574;BME280;32299;53.366;-1.544;2022-08-01T12:24:43;99146.85;;;23.54;27.45
46574;BME280;32299;53.366;-1.544;2022-08-01T12:27:10;99141.83;;;25.39;29.47
46574;BME280;32299;53.366;-1.544;2022-08-01T12:29:39;99137.57;;;27.06;28.74
46574;BME280;32299;53.366;-1.544;2022-08-01T12:32:24;99134.67;;;27.50;26.23
46574;BME280;32299;53.366;-1.544;2022-08-01T12:34:53;99131.13;;;27.92;25.65
46574;BME280;32299;53.366;-1.544;2022-08-01T12:37:23;99132.48;;;27.75;24.17
46574;BME280;32299;53.366;-1.544;2022-08-01T12:39:51;99128.48;;;26.19;25.08
46574;BME280;32299;53.366;-1.544;2022-08-01T12:42:19;99120.09;;;27.68;27.29
46574;BME280;32299;53.366;-1.544;2022-08-01T12:44:49;99119.33;;;28.45;23.97
46574;BME280;32299;53.366;-1.544;2022-08-01T12:47:18;99117.14;;;28.43;27.27
46574;BME280;32299;53.366;-1.544;2022-08-01T12:49:47;99113.41;;;27.14;27.78
46574;BME280;32299;53.366;-1.544;2022-08-01T12:52:16;99112.78;;;28.93;25.35
46574;BME280;32299;53.366;-1.544;2022-08-01T12:55:03;99109.79;;;28.78;25.23
46574;BME280;32299;53.366;-1.544;2022-08-01T12:57:31;99103.21;;;29.76;24.94
46574;BME280;32299;53.366;-1.544;2022-08-01T13:00:19;99101.08;;;28.59;25.88
46574;BME280;32299;53.366;-1.544;2022-08-01T13:02:48;99100.25;;;28.60;22.33